Creighton, NE (68729)

11:21 AM CST on February 14, 2016 (GMT -0600)
Ewing | | Change Station
CLOSE
Current Station
Personal Weather Station
Location: Ewing, NE
Elevation: 1929 ft
Nearby Weather Stations

Elev 1929 ft 42.24 °N, 98.24 °W | Updated 1 minute ago

Overcast
Overcast
38.6 °F
Feels Like 35 °F
N
5.0
Wind Variable Wind from NNW
Gusts 10.0 mph

Today
High -- | Low -- °F
--% Chance of Precip.
Yesterday
High -- | Low -- °F
Precip. -- in
Pressure 29.82 in
Visibility 10.0 miles
Clouds Mostly Cloudy 2200 ft
Mostly Cloudy 2700 ft
Windchill 35 °F
Dew Point 33 °F
Humidity 81%
Rainfall 0.11 in
Snow Depth Not available.
7:30 AM 6:01 PM
Waxing Crescent, 43% visible
METAR KONL 141655Z AUTO 32011G17KT 10SM BKN022 BKN027 04/00 A2982 RMK AO2 T00371001
Pressure 29.82 in
Visibility 10.0 miles
Clouds Mostly Cloudy 2200 ft
Mostly Cloudy 2700 ft
Windchill 35 °F
Dew Point 33 °F
Humidity 81%
Rainfall 0.11 in
Snow Depth Not available.
7:30 AM 6:01 PM
Waxing Crescent, 43% visible
METAR KONL 141655Z AUTO 32011G17KT 10SM BKN022 BKN027 04/00 A2982 RMK AO2 T00371001

10-Day Weather Forecast

Almanac

Astronomy

Feb. 14, 2016 Rise Set
Actual Time
Civil Twilight
Nautical Twilight
Astronomical Twilight
Moon
Length of Visible Light
Length of Day
Tomorrow will be .
, % of the Moon is Illuminated

Today's Extremes

State Highs State Lows

Community

WunderPhotos

Upload Photos

1,892,856 photos uploaded!

WunderBlog® & News

Nearby

Air Quality

  Air Quality AQ Index Pollutant
Not available.

Snow Depth

Station Depth Elevation

Earthquake Activity

City Distance Mag. Time & Date
Minimum magnitude displayed is 2.5.

Coastal Water Temperatures

Place Temperature

Stations

Nearby Weather Stations

Station Location Temp. Windchill Dew Point Humidity Wind Precip. Elev Updated Type
                   

Watches & Warnings

There are currently no watches in effect.